Time,TemperatureF,DewpointF,PressureIn,WindDirection,WindDirectionDegrees,WindSpeedMPH,WindSpeedGustMPH,Humidity,HourlyPrecipIn,Conditions,Clouds,dailyrainin,SoftwareType,DateUTC
2013-04-01 00:00:00,66.9,62.2,30.02,SSE,153,0.0,0.0,85,0.00,,,0.00,Wunderground v.1.15,2013-04-01 04:00:00,
2013-04-01 00:01:00,66.9,62.2,30.02,SSE,147,0.0,0.0,85,0.00,,,0.00,Wunderground v.1.15,2013-04-01 04:01:00,
2013-04-01 00:07:00,66.9,62.2,30.02,NW,314,0.0,0.0,85,0.00,,,0.00,Wunderground v.1.15,2013-04-01 04:07:00,
2013-04-01 00:08:00,66.8,62.1,30.02,West,270,1.0,1.0,85,0.00,,,0.00,Wunderground v.1.15,2013-04-01 04:08:00,
2013-04-01 00:12:00,66.9,62.2,30.02,SSE,165,0.0,0.0,85,0.00,,,0.00,Wunderground v.1.15,2013-04-01 04:12:00,
2013-04-01 00:17:00,66.9,62.2,30.02,SSE,151,0.0,1.0,85,0.00,,,0.00,Wunderground v.1.15,2013-04-01 04:17:00,
2013-04-01 00:23:00,66.9,62.2,30.02,South,172,2.0,2.0,85,0.00,,,0.00,Wunderground v.1.15,2013-04-01 04:23:00,
2013-04-01 00:29:00,66.8,61.8,30.02,NNE,22,0.0,2.0,84,0.00,,,0.00,Wunderground v.1.15,2013-04-01 04:29:00,
2013-04-01 00:35:00,66.8,61.8,30.01,SE,136,0.0,1.0,84,0.00,,,0.00,Wunderground v.1.15,2013-04-01 04:35:00,
2013-04-01 00:40:00,66.9,61.9,30.01,East,94,0.0,0.0,84,0.00,,,0.00,Wunderground v.1.15,2013-04-01 04:40:00,
2013-04-01 00:46:00,66.8,61.8,30.01,SSE,148,0.0,0.0,84,0.00,,,0.00,Wunderground v.1.15,2013-04-01 04:46:00,
2013-04-01 00:51:00,66.8,61.8,30.01,SSE,155,0.0,0.0,84,0.00,,,0.00,Wunderground v.1.15,2013-04-01 04:51:00,
2013-04-01 00:57:00,66.8,61.8,30.01,ESE,121,0.0,1.0,84,0.00,,,0.00,Wunderground v.1.15,2013-04-01 04:57:00,
2013-04-01 01:02:00,66.8,61.8,30.01,SE,141,0.0,0.0,84,0.00,,,0.00,Wunderground v.1.15,2013-04-01 05:02:00,
2013-04-01 01:08:00,66.9,61.9,30.01,SE,143,0.0,1.0,84,0.00,,,0.00,Wunderground v.1.15,2013-04-01 05:08:00,
2013-04-01 01:13:00,67.0,62.0,30.01,SE,142,0.0,1.0,84,0.00,,,0.00,Wunderground v.1.15,2013-04-01 05:13:00,
2013-04-01 01:19:00,67.1,62.1,30.01,SSE,150,0.0,1.0,84,0.00,,,0.00,Wunderground v.1.15,2013-04-01 05:19:00,
2013-04-01 01:24:00,67.1,62.1,30.01,SSE,148,0.0,1.0,84,0.00,,,0.00,Wunderground v.1.15,2013-04-01 05:24:00,
2013-04-01 01:30:00,67.1,62.1,30.01,East,97,0.0,0.0,84,0.00,,,0.00,Wunderground v.1.15,2013-04-01 05:30:00,
2013-04-01 01:35:00,67.2,62.2,30.01,SW,220,0.0,1.0,84,0.00,,,0.00,Wunderground v.1.15,2013-04-01 05:35:00,
2013-04-01 01:41:00,67.3,62.3,30.01,SE,133,0.0,1.0,84,0.00,,,0.00,Wunderground v.1.15,2013-04-01 05:41:00,
2013-04-01 01:47:00,67.2,62.2,30.01,SE,144,0.0,1.0,84,0.00,,,0.00,Wunderground v.1.15,2013-04-01 05:47:00,
2013-04-01 01:52:00,67.2,62.2,30.01,South,174,1.0,1.0,84,0.00,,,0.00,Wunderground v.1.15,2013-04-01 05:52:00,
2013-04-01 01:57:00,67.3,62.3,30.00,ESE,122,0.0,1.0,84,0.00,,,0.00,Wunderground v.1.15,2013-04-01 05:57:00,
2013-04-01 02:02:00,67.2,62.2,30.00,SSE,155,2.0,3.0,84,0.00,,,0.00,Wunderground v.1.15,2013-04-01 06:02:00,
2013-04-01 02:07:00,67.3,62.3,30.00,SSE,156,0.0,3.0,84,0.00,,,0.00,Wunderground v.1.15,2013-04-01 06:07:00,
2013-04-01 02:12:00,67.2,62.2,30.00,SSE,148,0.0,1.0,84,0.00,,,0.00,Wunderground v.1.15,2013-04-01 06:12:00,
2013-04-01 02:17:00,67.1,62.1,30.00,SE,141,0.0,2.0,84,0.00,,,0.00,Wunderground v.1.15,2013-04-01 06:17:00,
2013-04-01 02:22:00,67.1,62.4,30.00,SE,135,2.0,2.0,85,0.00,,,0.00,Wunderground v.1.15,2013-04-01 06:22:00,
2013-04-01 02:27:00,67.1,62.4,30.00,SE,145,0.0,2.0,85,0.00,,,0.00,Wunderground v.1.15,2013-04-01 06:27:00,
2013-04-01 02:32:00,67.1,62.4,29.99,South,184,4.0,4.0,85,0.00,,,0.00,Wunderground v.1.15,2013-04-01 06:32:00,
2013-04-01 02:37:00,67.2,62.5,29.99,South,169,2.0,5.0,85,0.00,,,0.00,Wunderground v.1.15,2013-04-01 06:37:00,
2013-04-01 02:42:00,67.3,62.6,29.99,SE,134,0.0,5.0,85,0.00,,,0.00,Wunderground v.1.15,2013-04-01 06:42:00,
2013-04-01 02:47:00,67.3,62.6,29.99,SE,146,0.0,5.0,85,0.00,,,0.00,Wunderground v.1.15,2013-04-01 06:47:00,
2013-04-01 02:52:00,67.2,62.5,29.99,SSE,153,0.0,1.0,85,0.00,,,0.00,Wunderground v.1.15,2013-04-01 06:52:00,
2013-04-01 02:57:00,67.1,62.4,29.98,SW,232,1.0,2.0,85,0.00,,,0.00,Wunderground v.1.15,2013-04-01 06:57:00,
2013-04-01 03:02:00,67.1,62.4,29.98,SSW,194,0.0,1.0,85,0.00,,,0.00,Wunderground v.1.15,2013-04-01 07:02:00,
2013-04-01 03:08:00,67.0,62.7,29.98,South,181,0.0,3.0,86,0.00,,,0.00,Wunderground v.1.15,2013-04-01 07:08:00,
2013-04-01 03:13:00,66.8,62.5,29.98,South,176,0.0,1.0,86,0.00,,,0.00,Wunderground v.1.15,2013-04-01 07:13:00,
2013-04-01 03:18:00,66.6,62.6,29.99,WSW,255,0.0,1.0,87,0.00,,,0.00,Wunderground v.1.15,2013-04-01 07:18:00,
2013-04-01 03:23:00,66.5,62.5,29.99,WSW,247,0.0,1.0,87,0.00,,,0.00,Wunderground v.1.15,2013-04-01 07:23:00,
2013-04-01 03:28:00,66.3,62.3,29.99,SSE,166,0.0,1.0,87,0.00,,,0.00,Wunderground v.1.15,2013-04-01 07:28:00,
2013-04-01 03:33:00,66.2,62.5,29.98,South,177,2.0,2.0,88,0.00,,,0.00,Wunderground v.1.15,2013-04-01 07:33:00,
2013-04-01 03:38:00,66.3,62.6,29.98,ESE,121,0.0,3.0,88,0.00,,,0.00,Wunderground v.1.15,2013-04-01 07:38:00,
2013-04-01 03:43:00,66.3,62.6,29.99,East,98,0.0,1.0,88,0.00,,,0.00,Wunderground v.1.15,2013-04-01 07:43:00,
2013-04-01 03:48:00,66.3,62.6,29.98,SE,146,0.0,3.0,88,0.00,,,0.00,Wunderground v.1.15,2013-04-01 07:48:00,
2013-04-01 03:53:00,66.3,62.6,29.98,SE,133,0.0,2.0,88,0.00,,,0.00,Wunderground v.1.15,2013-04-01 07:53:00,
2013-04-01 03:58:00,66.4,62.7,29.98,South,169,0.0,3.0,88,0.00,,,0.00,Wunderground v.1.15,2013-04-01 07:58:00,
2013-04-01 04:03:00,66.4,62.7,29.98,SSE,161,1.0,1.0,88,0.00,,,0.00,Wunderground v.1.15,2013-04-01 08:03:00,
2013-04-01 04:08:00,66.5,62.8,29.98,East,79,2.0,3.0,88,0.00,,,0.00,Wunderground v.1.15,2013-04-01 08:08:00,
2013-04-01 04:13:00,66.5,62.8,29.98,SSE,158,2.0,2.0,88,0.00,,,0.00,Wunderground v.1.15,2013-04-01 08:13:00,
2013-04-01 04:18:00,66.6,62.9,29.98,SSW,196,0.0,4.0,88,0.00,,,0.00,Wunderground v.1.15,2013-04-01 08:18:00,
2013-04-01 04:23:00,66.6,62.9,29.98,ENE,65,1.0,2.0,88,0.00,,,0.00,Wunderground v.1.15,2013-04-01 08:23:00,
2013-04-01 04:28:00,66.7,63.0,29.98,NW,321,0.0,2.0,88,0.00,,,0.00,Wunderground v.1.15,2013-04-01 08:28:00,
2013-04-01 04:33:00,66.7,63.0,29.98,NE,54,0.0,2.0,88,0.00,,,0.00,Wunderground v.1.15,2013-04-01 08:33:00,
2013-04-01 04:38:00,66.7,63.0,29.98,SE,145,0.0,3.0,88,0.00,,,0.00,Wunderground v.1.15,2013-04-01 08:38:00,
2013-04-01 04:43:00,66.8,63.1,29.98,ESE,115,0.0,3.0,88,0.00,,,0.00,Wunderground v.1.15,2013-04-01 08:43:00,
2013-04-01 04:48:00,66.8,63.1,29.98,SSE,150,0.0,3.0,88,0.00,,,0.00,Wunderground v.1.15,2013-04-01 08:48:00,
2013-04-01 04:53:00,66.8,63.1,29.98,SSE,148,0.0,4.0,88,0.00,,,0.00,Wunderground v.1.15,2013-04-01 08:53:00,
2013-04-01 04:58:00,66.8,63.1,29.98,ESE,118,0.0,4.0,88,0.00,,,0.00,Wunderground v.1.15,2013-04-01 08:58:00,
2013-04-01 05:03:00,66.9,63.2,29.98,ESE,122,0.0,2.0,88,0.00,,,0.00,Wunderground v.1.15,2013-04-01 09:03:00,
2013-04-01 05:08:00,66.9,63.2,29.98,SSE,155,1.0,2.0,88,0.00,,,0.00,Wunderground v.1.15,2013-04-01 09:08:00,
2013-04-01 05:13:00,66.9,63.2,29.98,ESE,111,0.0,4.0,88,0.00,,,0.00,Wunderground v.1.15,2013-04-01 09:13:00,
2013-04-01 05:18:00,66.8,63.5,29.98,SW,232,0.0,4.0,89,0.00,,,0.00,Wunderground v.1.15,2013-04-01 09:18:00,
2013-04-01 05:24:00,66.8,63.5,29.98,SSE,153,1.0,3.0,89,0.00,,,0.00,Wunderground v.1.15,2013-04-01 09:24:00,
2013-04-01 05:29:00,66.8,63.5,29.97,SE,137,1.0,3.0,89,0.00,,,0.00,Wunderground v.1.15,2013-04-01 09:29:00,
2013-04-01 05:34:00,66.8,63.5,29.97,WSW,245,1.0,5.0,89,0.00,,,0.00,Wunderground v.1.15,2013-04-01 09:34:00,
2013-04-01 05:39:00,66.8,63.5,29.97,ESE,119,3.0,5.0,89,0.00,,,0.00,Wunderground v.1.15,2013-04-01 09:39:00,
2013-04-01 05:44:00,66.8,63.5,29.96,ESE,105,0.0,5.0,89,0.00,,,0.00,Wunderground v.1.15,2013-04-01 09:44:00,
2013-04-01 05:49:00,66.9,63.6,29.96,SE,136,2.0,9.0,89,0.00,,,0.00,Wunderground v.1.15,2013-04-01 09:49:00,
2013-04-01 05:54:00,67.0,63.6,29.97,East,98,1.0,3.0,89,0.00,,,0.00,Wunderground v.1.15,2013-04-01 09:54:00,
2013-04-01 05:59:00,67.1,63.7,29.97,North,356,2.0,4.0,89,0.00,,,0.00,Wunderground v.1.15,2013-04-01 09:59:00,
2013-04-01 06:04:00,67.3,63.6,29.97,SSE,162,1.0,6.0,88,0.00,,,0.00,Wunderground v.1.15,2013-04-01 10:04:00,
2013-04-01 06:09:00,67.4,63.7,29.96,SE,141,1.0,6.0,88,0.00,,,0.00,Wunderground v.1.15,2013-04-01 10:09:00,
2013-04-01 06:14:00,67.5,63.8,29.97,SE,146,0.0,3.0,88,0.00,,,0.00,Wunderground v.1.15,2013-04-01 10:14:00,
2013-04-01 06:19:00,67.5,64.1,29.98,SE,129,0.0,3.0,89,0.00,,,0.00,Wunderground v.1.15,2013-04-01 10:19:00,
2013-04-01 06:24:00,67.6,64.2,29.98,WNW,288,0.0,3.0,89,0.00,,,0.00,Wunderground v.1.15,2013-04-01 10:24:00,
2013-04-01 06:29:00,67.5,64.1,29.98,SE,131,0.0,3.0,89,0.00,,,0.00,Wunderground v.1.15,2013-04-01 10:29:00,
2013-04-01 06:34:00,67.5,64.1,29.98,ENE,67,0.0,1.0,89,0.00,,,0.00,Wunderground v.1.15,2013-04-01 10:34:00,
2013-04-01 06:39:00,67.4,64.0,29.98,ESE,113,1.0,3.0,89,0.00,,,0.00,Wunderground v.1.15,2013-04-01 10:39:00,
2013-04-01 06:44:00,67.5,64.1,29.98,West,281,0.0,2.0,89,0.00,,,0.00,Wunderground v.1.15,2013-04-01 10:44:00,
2013-04-01 06:49:00,67.7,64.3,29.99,NW,311,1.0,4.0,89,0.00,,,0.00,Wunderground v.1.15,2013-04-01 10:49:00,
2013-04-01 06:54:00,67.8,64.4,29.99,South,170,0.0,3.0,89,0.00,,,0.00,Wunderground v.1.15,2013-04-01 10:54:00,
2013-04-01 06:59:00,67.9,64.5,29.99,SE,136,0.0,3.0,89,0.00,,,0.00,Wunderground v.1.15,2013-04-01 10:59:00,
2013-04-01 07:04:00,67.9,64.5,29.99,SSW,210,2.0,4.0,89,0.00,,,0.00,Wunderground v.1.15,2013-04-01 11:04:00,
2013-04-01 07:09:00,67.9,64.5,29.99,SSE,165,1.0,4.0,89,0.00,,,0.00,Wunderground v.1.15,2013-04-01 11:09:00,
2013-04-01 07:14:00,67.9,64.5,29.99,East,98,0.0,3.0,89,0.00,,,0.00,Wunderground v.1.15,2013-04-01 11:14:00,
2013-04-01 07:19:00,67.9,64.9,29.99,West,267,1.0,3.0,90,0.00,,,0.00,Wunderground v.1.15,2013-04-01 11:19:00,
2013-04-01 07:24:00,67.9,64.9,30.00,West,274,2.0,3.0,90,0.00,,,0.00,Wunderground v.1.15,2013-04-01 11:24:00,
2013-04-01 07:29:00,67.9,64.9,30.00,SSE,156,2.0,4.0,90,0.00,,,0.00,Wunderground v.1.15,2013-04-01 11:29:00,
2013-04-01 07:34:00,68.0,65.0,30.00,East,101,0.0,2.0,90,0.00,,,0.00,Wunderground v.1.15,2013-04-01 11:34:00,
2013-04-01 07:39:00,68.0,65.0,30.00,SSE,162,2.0,4.0,90,0.00,,,0.00,Wunderground v.1.15,2013-04-01 11:39:00,
2013-04-01 07:44:00,68.0,65.0,30.00,SSE,155,2.0,4.0,90,0.00,,,0.00,Wunderground v.1.15,2013-04-01 11:44:00,
2013-04-01 07:49:00,68.0,65.0,30.01,SSE,153,1.0,4.0,90,0.00,,,0.00,Wunderground v.1.15,2013-04-01 11:49:00,
2013-04-01 07:54:00,67.9,64.9,30.01,ESE,107,1.0,5.0,90,0.00,,,0.00,Wunderground v.1.15,2013-04-01 11:54:00,
2013-04-01 07:59:00,67.9,64.9,30.01,SE,126,1.0,5.0,90,0.00,,,0.00,Wunderground v.1.15,2013-04-01 11:59:00,
2013-04-01 08:04:00,67.9,64.9,30.01,ESE,106,1.0,2.0,90,0.00,,,0.00,Wunderground v.1.15,2013-04-01 12:04:00,
2013-04-01 08:09:00,67.9,64.9,30.01,NE,52,1.0,2.0,90,0.00,,,0.00,Wunderground v.1.15,2013-04-01 12:09:00,
2013-04-01 08:14:00,67.9,65.2,30.02,East,96,3.0,5.0,91,0.00,,,0.00,Wunderground v.1.15,2013-04-01 12:14:00,
2013-04-01 08:19:00,68.1,65.4,30.02,SE,130,2.0,5.0,91,0.00,,,0.00,Wunderground v.1.15,2013-04-01 12:19:00,
2013-04-01 08:24:00,68.4,65.4,30.02,WSW,255,4.0,4.0,90,0.00,,,0.00,Wunderground v.1.15,2013-04-01 12:24:00,
2013-04-01 08:29:00,68.7,65.6,30.02,NW,322,2.0,2.0,90,0.00,,,0.00,Wunderground v.1.15,2013-04-01 12:29:00,
2013-04-01 08:34:00,69.2,65.8,30.02,SE,146,1.0,5.0,89,0.00,,,0.00,Wunderground v.1.15,2013-04-01 12:34:00,
2013-04-01 08:39:00,69.8,66.1,30.02,SSE,153,1.0,1.0,88,0.00,,,0.00,Wunderground v.1.15,2013-04-01 12:39:00,
2013-04-01 08:44:00,70.4,66.3,30.02,SSE,156,2.0,3.0,87,0.00,,,0.00,Wunderground v.1.15,2013-04-01 12:44:00,
2013-04-01 08:49:00,70.9,66.2,30.03,WSW,256,2.0,2.0,85,0.00,,,0.00,Wunderground v.1.15,2013-04-01 12:49:00,
2013-04-01 08:54:00,71.5,66.1,30.03,SE,146,2.0,4.0,83,0.00,,,0.00,Wunderground v.1.15,2013-04-01 12:54:00,
2013-04-01 09:00:00,71.9,66.1,30.03,WSW,257,2.0,2.0,82,0.00,,,0.00,Wunderground v.1.15,2013-04-01 13:00:00,
2013-04-01 09:05:00,72.4,66.6,30.03,ENE,77,1.0,7.0,82,0.00,,,0.00,Wunderground v.1.15,2013-04-01 13:05:00,
2013-04-01 09:10:00,73.0,66.5,30.03,South,186,0.0,2.0,80,0.00,,,0.00,Wunderground v.1.15,2013-04-01 13:10:00,
2013-04-01 09:15:00,73.7,66.4,30.03,SE,129,3.0,4.0,78,0.00,,,0.00,Wunderground v.1.15,2013-04-01 13:15:00,
2013-04-01 09:20:00,74.2,66.9,30.03,West,278,2.0,3.0,78,0.00,,,0.00,Wunderground v.1.15,2013-04-01 13:20:00,
2013-04-01 09:25:00,74.6,66.9,30.03,SSE,148,1.0,4.0,77,0.00,,,0.00,Wunderground v.1.15,2013-04-01 13:25:00,
2013-04-01 09:30:00,74.9,66.8,30.03,SSE,159,4.0,4.0,76,0.00,,,0.00,Wunderground v.1.15,2013-04-01 13:30:00,
2013-04-01 09:35:00,75.3,66.8,30.03,East,98,3.0,5.0,75,0.00,,,0.00,Wunderground v.1.15,2013-04-01 13:35:00,
2013-04-01 09:40:00,75.4,66.5,30.03,East,84,3.0,6.0,74,0.00,,,0.00,Wunderground v.1.15,2013-04-01 13:40:00,
2013-04-01 09:45:00,75.8,66.9,30.03,SW,215,2.0,6.0,74,0.00,,,0.00,Wunderground v.1.15,2013-04-01 13:45:00,
2013-04-01 09:50:00,76.1,67.2,30.02,ENE,72,1.0,3.0,74,0.00,,,0.00,Wunderground v.1.15,2013-04-01 13:50:00,
2013-04-01 09:55:00,76.4,67.1,30.02,SSE,158,2.0,4.0,73,0.00,,,0.00,Wunderground v.1.15,2013-04-01 13:55:00,
2013-04-01 10:00:00,77.0,67.3,30.02,West,269,1.0,1.0,72,0.00,,,0.00,Wunderground v.1.15,2013-04-01 14:00:00,
2013-04-01 10:05:00,77.2,66.2,30.02,SE,139,4.0,5.0,69,0.00,,,0.00,Wunderground v.1.15,2013-04-01 14:05:00,
2013-04-01 10:10:00,77.4,66.4,30.02,SSE,157,6.0,6.0,69,0.00,,,0.00,Wunderground v.1.15,2013-04-01 14:10:00,
2013-04-01 10:15:00,77.1,66.1,30.02,WNW,303,2.0,10.0,69,0.00,,,0.00,Wunderground v.1.15,2013-04-01 14:15:00,
2013-04-01 10:20:00,76.7,65.8,30.02,SSE,150,2.0,3.0,69,0.00,,,0.00,Wunderground v.1.15,2013-04-01 14:20:00,
2013-04-01 10:25:00,76.5,66.8,30.02,South,169,3.0,7.0,72,0.00,,,0.00,Wunderground v.1.15,2013-04-01 14:25:00,
2013-04-01 10:30:00,77.1,67.8,30.03,ESE,119,1.0,4.0,73,0.00,,,0.00,Wunderground v.1.15,2013-04-01 14:30:00,
2013-04-01 10:35:00,77.7,68.0,30.03,WNW,300,1.0,4.0,72,0.00,,,0.00,Wunderground v.1.15,2013-04-01 14:35:00,
2013-04-01 10:40:00,78.2,68.4,30.03,South,179,1.0,2.0,72,0.00,,,0.00,Wunderground v.1.15,2013-04-01 14:40:00,
2013-04-01 10:45:00,79.1,69.7,30.03,ESE,105,1.0,2.0,73,0.00,,,0.00,Wunderground v.1.15,2013-04-01 14:45:00,
2013-04-01 10:50:00,78.8,68.6,30.03,East,101,4.0,8.0,71,0.00,,,0.00,Wunderground v.1.15,2013-04-01 14:50:00,
2013-04-01 10:55:00,78.1,68.7,30.03,SE,137,1.0,8.0,73,0.00,,,0.00,Wunderground v.1.15,2013-04-01 14:55:00,
2013-04-01 11:00:00,78.3,69.3,30.03,SSE,162,4.0,4.0,74,0.00,,,0.00,Wunderground v.1.15,2013-04-01 15:00:00,
2013-04-01 11:05:00,78.1,69.1,30.03,SSE,167,3.0,7.0,74,0.00,,,0.00,Wunderground v.1.15,2013-04-01 15:05:00,
2013-04-01 11:10:00,78.5,69.1,30.04,SW,232,3.0,3.0,73,0.00,,,0.00,Wunderground v.1.15,2013-04-01 15:10:00,
2013-04-01 11:15:00,78.4,68.6,30.04,SE,140,2.0,8.0,72,0.00,,,0.00,Wunderground v.1.15,2013-04-01 15:15:00,
2013-04-01 11:21:00,78.5,69.1,30.04,ENE,59,4.0,5.0,73,0.00,,,0.00,Wunderground v.1.15,2013-04-01 15:21:00,
2013-04-01 11:26:00,78.5,69.1,30.04,West,277,7.0,9.0,73,0.00,,,0.00,Wunderground v.1.15,2013-04-01 15:26:00,
2013-04-01 11:31:00,79.0,70.0,30.04,SSE,165,0.0,3.0,74,0.00,,,0.00,Wunderground v.1.15,2013-04-01 15:31:00,
2013-04-01 11:36:00,79.6,69.8,30.04,NNE,14,0.0,6.0,72,0.00,,,0.00,Wunderground v.1.15,2013-04-01 15:36:00,
2013-04-01 11:41:00,80.3,70.9,30.04,North,6,1.0,3.0,73,0.00,,,0.00,Wunderground v.1.15,2013-04-01 15:41:00,
2013-04-01 11:46:00,81.1,70.4,30.04,North,8,5.0,7.0,70,0.00,,,0.00,Wunderground v.1.15,2013-04-01 15:46:00,
2013-04-01 11:51:00,81.3,71.0,30.04,South,178,1.0,3.0,71,0.00,,,0.00,Wunderground v.1.15,2013-04-01 15:51:00,
2013-04-01 11:56:00,80.7,70.0,30.04,South,176,2.0,9.0,70,0.00,,,0.00,Wunderground v.1.15,2013-04-01 15:56:00,
2013-04-01 12:01:00,79.5,70.1,30.04,ESE,106,1.0,4.0,73,0.00,,,0.00,Wunderground v.1.15,2013-04-01 16:01:00,
2013-04-01 12:06:00,78.9,70.3,30.04,SE,135,2.0,9.0,75,0.00,,,0.00,Wunderground v.1.15,2013-04-01 16:06:00,
2013-04-01 12:11:00,79.1,70.1,30.04,SSW,201,2.0,7.0,74,0.00,,,0.00,Wunderground v.1.15,2013-04-01 16:11:00,
2013-04-01 12:16:00,79.1,70.5,30.04,South,172,4.0,7.0,75,0.00,,,0.00,Wunderground v.1.15,2013-04-01 16:16:00,
2013-04-01 12:22:00,79.7,70.7,30.04,South,179,4.0,7.0,74,0.00,,,0.00,Wunderground v.1.15,2013-04-01 16:22:00,
2013-04-01 12:27:00,79.5,70.5,30.04,SW,226,4.0,9.0,74,0.00,,,0.00,Wunderground v.1.15,2013-04-01 16:27:00,
2013-04-01 12:32:00,79.7,71.1,30.04,NNW,335,1.0,6.0,75,0.00,,,0.00,Wunderground v.1.15,2013-04-01 16:32:00,
2013-04-01 12:37:00,80.0,70.6,30.04,ENE,77,5.0,7.0,73,0.00,,,0.00,Wunderground v.1.15,2013-04-01 16:37:00,
2013-04-01 12:42:00,80.3,71.6,30.03,NNE,20,3.0,3.0,75,0.00,,,0.00,Wunderground v.1.15,2013-04-01 16:42:00,
2013-04-01 12:47:00,80.6,71.1,30.03,ESE,108,6.0,7.0,73,0.00,,,0.00,Wunderground v.1.15,2013-04-01 16:47:00,
2013-04-01 12:52:00,80.2,70.8,30.03,South,179,3.0,9.0,73,0.00,,,0.00,Wunderground v.1.15,2013-04-01 16:52:00,
2013-04-01 12:57:00,80.2,71.2,30.03,SSW,194,3.0,12.0,74,0.00,,,0.00,Wunderground v.1.15,2013-04-01 16:57:00,
2013-04-01 13:02:00,80.4,70.9,30.03,NNE,18,1.0,4.0,73,0.00,,,0.00,Wunderground v.1.15,2013-04-01 17:02:00,
2013-04-01 13:07:00,80.6,70.3,30.03,NE,44,2.0,7.0,71,0.00,,,0.00,Wunderground v.1.15,2013-04-01 17:07:00,
2013-04-01 13:12:00,80.7,70.0,30.03,NNW,348,2.0,8.0,70,0.00,,,0.00,Wunderground v.1.15,2013-04-01 17:12:00,
2013-04-01 13:17:00,80.5,69.0,30.03,NW,306,3.0,11.0,68,0.00,,,0.00,Wunderground v.1.15,2013-04-01 17:17:00,
2013-04-01 13:22:00,80.1,69.4,30.03,West,259,4.0,8.0,70,0.00,,,0.00,Wunderground v.1.15,2013-04-01 17:22:00,
2013-04-01 13:27:00,79.8,68.7,30.02,ESE,108,6.0,8.0,69,0.00,,,0.00,Wunderground v.1.15,2013-04-01 17:27:00,
2013-04-01 13:32:00,79.9,70.1,30.02,South,172,2.0,6.0,72,0.00,,,0.00,Wunderground v.1.15,2013-04-01 17:32:00,